Abbotsford International Airport

CYXX · 不列颠哥伦比亚, 加拿大

罗盘
风向 的 风向 020° 阿伯茨福德国际机场 7/25
风: 3 kt, 1 beaufort

1 kt

3 kt
改变
0 ft 1.000 2.000 3.000 4.000 5.000
没有云
METAR CYXX 050700Z 02003KT 15SM SKC M01/M02 A2997 RMK SLP152

METAR 阿伯茨福德国际机场 - CYXX/YXX

阿伯茨福德国际机场是,加拿大中的大型机场。 该机场位于纬度49,02281和经度-122,36722。 该机场有2条跑道: 7/25 和 1/19. 本场的ICAO机场代码为CYXX。 该机场的IATA代码为YXX。 机场在Vancouver FIR中。

该航空气象观测是针对阿伯茨福德国际机场在2024年3月4日 23:00, 当地时间进行的。

机场观察

风向为020°,速度为3 kt。

可见度为15 mi。

有没有云。 没有观察到天花板。

温度为-1 °C,阵风为-5 °C。 露点为-2 °C,相对湿度为93%。 海平面上的气压为29,97 inHg (QNH)。

白天

今天,太阳从06:41升起,在17:59降落。 这适用于阿伯茨福德国际机场,世界夏令时可能有所不同。 当地时间与世界标准时间之间的时差为-8 小时。 当前,没有夏令时有效。

公司介绍

在这个机场,你可以找到飞行学校。 本场上唯一已知的公司是Coastal Pacific Aviation。

体会

到Vliegles.nl去找飞行课程,跳伞和其他飞行体验。 浏览页面,了解阿伯茨福德国际机场附近所有可用的活动。 你也可以使用搜索功能来寻找你所在地附近的特定飞行课程、跳伞或其他飞行体验。

跑道

Id 标题 侧风 逆风 侧风 %
7/25 086°-266° 3 kt 1 kt 91 %
1/19 026°-206° 3 kt 10 %

逆风成分最大的方向会被突出显示,并用于横风计算。 这并不一定意味着这个方向在使用。

乌云

- SKC 没有云

温度 & 天气

温度 -1 °C
露点 -2 °C
相对湿度 93%
风寒 -5 °C
Kp-index 2 (0-9)

评论

SLP152海平面压力为29,98 inHg (29,98 inHg)

白天

日出
06:41 (7:01)
中午
12:20
日落
17:59

小工具

你想在你的网站上有一个关于阿伯茨福德国际机场的当前航空天气(METAR)的小部件吗?

显示HTML代码
?>